sensor_id;sensor_type;location;lat;lon;timestamp;P1;durP1;ratioP1;P2;durP2;ratioP2
3597;SDS011;1813;52.016;8.714;2023-11-21T00:02:31;95.90;;;36.80;;
3597;SDS011;1813;52.016;8.714;2023-11-21T00:05:04;112.37;;;40.20;;
3597;SDS011;1813;52.016;8.714;2023-11-21T00:07:38;109.33;;;41.70;;
3597;SDS011;1813;52.016;8.714;2023-11-21T00:10:12;110.43;;;40.50;;
3597;SDS011;1813;52.016;8.714;2023-11-21T00:12:47;113.97;;;41.00;;
3597;SDS011;1813;52.016;8.714;2023-11-21T00:15:23;107.37;;;39.90;;
3597;SDS011;1813;52.016;8.714;2023-11-21T00:17:56;114.73;;;40.10;;
3597;SDS011;1813;52.016;8.714;2023-11-21T00:20:30;100.17;;;35.63;;
3597;SDS011;1813;52.016;8.714;2023-11-21T00:23:03;96.27;;;34.60;;
3597;SDS011;1813;52.016;8.714;2023-11-21T00:25:37;90.17;;;33.20;;
3597;SDS011;1813;52.016;8.714;2023-11-21T00:28:10;89.50;;;33.80;;
3597;SDS011;1813;52.016;8.714;2023-11-21T00:30:46;98.20;;;33.23;;
3597;SDS011;1813;52.016;8.714;2023-11-21T00:33:20;87.27;;;32.97;;
3597;SDS011;1813;52.016;8.714;2023-11-21T00:35:55;73.03;;;30.57;;
3597;SDS011;1813;52.016;8.714;2023-11-21T00:38:29;81.27;;;30.57;;
3597;SDS011;1813;52.016;8.714;2023-11-21T00:41:02;72.60;;;27.57;;
3597;SDS011;1813;52.016;8.714;2023-11-21T00:43:36;72.40;;;28.43;;
3597;SDS011;1813;52.016;8.714;2023-11-21T00:46:12;73.97;;;28.80;;
3597;SDS011;1813;52.016;8.714;2023-11-21T00:48:45;65.93;;;28.37;;
3597;SDS011;1813;52.016;8.714;2023-11-21T00:51:21;64.43;;;28.17;;
3597;SDS011;1813;52.016;8.714;2023-11-21T00:53:55;72.93;;;27.93;;
3597;SDS011;1813;52.016;8.714;2023-11-21T00:56:28;62.40;;;26.00;;
3597;SDS011;1813;52.016;8.714;2023-11-21T00:59:02;64.87;;;26.73;;
3597;SDS011;1813;52.016;8.714;2023-11-21T01:01:40;68.07;;;27.20;;
3597;SDS011;1813;52.016;8.714;2023-11-21T01:04:14;66.50;;;26.93;;
3597;SDS011;1813;52.016;8.714;2023-11-21T01:06:47;71.47;;;27.13;;
3597;SDS011;1813;52.016;8.714;2023-11-21T01:09:21;63.63;;;27.07;;
3597;SDS011;1813;52.016;8.714;2023-11-21T01:11:55;52.90;;;26.10;;
3597;SDS011;1813;52.016;8.714;2023-11-21T01:14:29;64.27;;;25.60;;
3597;SDS011;1813;52.016;8.714;2023-11-21T01:17:06;59.43;;;26.17;;
3597;SDS011;1813;52.016;8.714;2023-11-21T01:19:39;63.03;;;24.30;;
3597;SDS011;1813;52.016;8.714;2023-11-21T01:22:13;63.43;;;26.03;;
3597;SDS011;1813;52.016;8.714;2023-11-21T01:24:46;56.03;;;24.67;;
3597;SDS011;1813;52.016;8.714;2023-11-21T01:27:20;66.33;;;24.80;;
3597;SDS011;1813;52.016;8.714;2023-11-21T01:29:53;48.40;;;24.77;;
3597;SDS011;1813;52.016;8.714;2023-11-21T01:32:29;58.33;;;25.93;;
3597;SDS011;1813;52.016;8.714;2023-11-21T01:35:03;60.43;;;25.70;;
3597;SDS011;1813;52.016;8.714;2023-11-21T01:37:37;64.97;;;26.87;;
3597;SDS011;1813;52.016;8.714;2023-11-21T01:40:11;68.03;;;26.20;;
3597;SDS011;1813;52.016;8.714;2023-11-21T01:42:45;66.30;;;27.43;;
3597;SDS011;1813;52.016;8.714;2023-11-21T01:45:18;63.10;;;26.03;;
3597;SDS011;1813;52.016;8.714;2023-11-21T01:47:54;60.20;;;26.33;;
3597;SDS011;1813;52.016;8.714;2023-11-21T01:50:28;60.40;;;27.43;;
3597;SDS011;1813;52.016;8.714;2023-11-21T01:53:02;59.17;;;27.10;;
3597;SDS011;1813;52.016;8.714;2023-11-21T01:55:37;56.73;;;26.07;;
3597;SDS011;1813;52.016;8.714;2023-11-21T01:58:10;59.87;;;26.20;;
3597;SDS011;1813;52.016;8.714;2023-11-21T02:00:45;61.20;;;26.97;;
3597;SDS011;1813;52.016;8.714;2023-11-21T02:03:23;54.27;;;27.10;;
3597;SDS011;1813;52.016;8.714;2023-11-21T02:05:57;60.30;;;25.97;;
3597;SDS011;1813;52.016;8.714;2023-11-21T02:08:30;61.07;;;28.63;;
3597;SDS011;1813;52.016;8.714;2023-11-21T02:11:04;68.50;;;28.20;;
3597;SDS011;1813;52.016;8.714;2023-11-21T02:13:39;69.87;;;29.30;;
3597;SDS011;1813;52.016;8.714;2023-11-21T02:16:16;68.13;;;29.03;;
3597;SDS011;1813;52.016;8.714;2023-11-21T02:18:52;67.80;;;29.23;;
3597;SDS011;1813;52.016;8.714;2023-11-21T02:21:25;67.90;;;28.97;;
3597;SDS011;1813;52.016;8.714;2023-11-21T02:24:03;64.27;;;28.10;;
3597;SDS011;1813;52.016;8.714;2023-11-21T02:26:37;60.67;;;27.60;;
3597;SDS011;1813;52.016;8.714;2023-11-21T02:29:11;58.97;;;27.33;;
3597;SDS011;1813;52.016;8.714;2023-11-21T02:31:47;67.30;;;28.80;;
3597;SDS011;1813;52.016;8.714;2023-11-21T02:34:22;53.50;;;27.13;;
3597;SDS011;1813;52.016;8.714;2023-11-21T02:36:56;66.27;;;25.97;;
3597;SDS011;1813;52.016;8.714;2023-11-21T02:39:32;55.80;;;24.20;;
3597;SDS011;1813;52.016;8.714;2023-11-21T02:42:06;57.00;;;23.90;;
3597;SDS011;1813;52.016;8.714;2023-11-21T02:44:39;51.40;;;24.67;;
3597;SDS011;1813;52.016;8.714;2023-11-21T02:47:13;60.63;;;25.97;;
3597;SDS011;1813;52.016;8.714;2023-11-21T02:49:46;58.50;;;26.50;;
3597;SDS011;1813;52.016;8.714;2023-11-21T02:52:20;55.53;;;25.27;;
3597;SDS011;1813;52.016;8.714;2023-11-21T02:54:56;60.93;;;25.43;;
3597;SDS011;1813;52.016;8.714;2023-11-21T02:57:30;56.20;;;25.67;;
3597;SDS011;1813;52.016;8.714;2023-11-21T03:00:04;65.73;;;25.70;;
3597;SDS011;1813;52.016;8.714;2023-11-21T03:02:39;58.03;;;24.23;;
3597;SDS011;1813;52.016;8.714;2023-11-21T03:05:12;58.70;;;26.03;;
3597;SDS011;1813;52.016;8.714;2023-11-21T03:07:46;58.47;;;24.57;;
3597;SDS011;1813;52.016;8.714;2023-11-21T03:10:22;60.60;;;25.57;;
3597;SDS011;1813;52.016;8.714;2023-11-21T03:12:55;60.40;;;27.10;;
3597;SDS011;1813;52.016;8.714;2023-11-21T03:15:29;62.50;;;26.60;;
3597;SDS011;1813;52.016;8.714;2023-11-21T03:18:02;62.67;;;25.90;;
3597;SDS011;1813;52.016;8.714;2023-11-21T03:20:36;62.40;;;26.90;;
3597;SDS011;1813;52.016;8.714;2023-11-21T03:23:09;55.87;;;26.60;;
3597;SDS011;1813;52.016;8.714;2023-11-21T03:25:46;61.93;;;27.83;;
3597;SDS011;1813;52.016;8.714;2023-11-21T03:28:19;58.70;;;25.43;;
3597;SDS011;1813;52.016;8.714;2023-11-21T03:30:53;71.63;;;26.00;;
3597;SDS011;1813;52.016;8.714;2023-11-21T03:33:28;63.43;;;26.10;;
3597;SDS011;1813;52.016;8.714;2023-11-21T03:36:02;58.40;;;26.07;;
3597;SDS011;1813;52.016;8.714;2023-11-21T03:38:35;61.77;;;26.53;;
3597;SDS011;1813;52.016;8.714;2023-11-21T03:41:12;58.70;;;26.50;;
3597;SDS011;1813;52.016;8.714;2023-11-21T03:43:45;71.40;;;25.43;;
3597;SDS011;1813;52.016;8.714;2023-11-21T03:46:18;61.03;;;24.63;;
3597;SDS011;1813;52.016;8.714;2023-11-21T03:48:52;57.13;;;24.90;;
3597;SDS011;1813;52.016;8.714;2023-11-21T03:51:25;62.20;;;25.37;;
3597;SDS011;1813;52.016;8.714;2023-11-21T03:53:59;53.47;;;25.20;;
3597;SDS011;1813;52.016;8.714;2023-11-21T03:56:35;54.37;;;24.33;;
3597;SDS011;1813;52.016;8.714;2023-11-21T03:59:08;57.30;;;24.50;;
3597;SDS011;1813;52.016;8.714;2023-11-21T04:01:42;60.60;;;24.67;;
3597;SDS011;1813;52.016;8.714;2023-11-21T04:04:15;65.33;;;24.50;;
3597;SDS011;1813;52.016;8.714;2023-11-21T04:06:50;62.80;;;25.30;;
3597;SDS011;1813;52.016;8.714;2023-11-21T04:09:24;62.03;;;23.93;;
3597;SDS011;1813;52.016;8.714;2023-11-21T04:12:01;55.63;;;23.00;;
3597;SDS011;1813;52.016;8.714;2023-11-21T04:14:34;56.70;;;23.33;;
3597;SDS011;1813;52.016;8.714;2023-11-21T04:17:07;56.87;;;24.23;;
3597;SDS011;1813;52.016;8.714;2023-11-21T04:19:41;57.63;;;23.73;;
3597;SDS011;1813;52.016;8.714;2023-11-21T04:22:14;55.57;;;22.43;;
3597;SDS011;1813;52.016;8.714;2023-11-21T04:24:48;57.37;;;24.00;;
3597;SDS011;1813;52.016;8.714;2023-11-21T04:27:24;60.73;;;23.00;;
3597;SDS011;1813;52.016;8.714;2023-11-21T04:29:58;58.90;;;22.70;;
3597;SDS011;1813;52.016;8.714;2023-11-21T04:32:31;64.67;;;23.73;;
3597;SDS011;1813;52.016;8.714;2023-11-21T04:35:05;64.73;;;23.17;;
3597;SDS011;1813;52.016;8.714;2023-11-21T04:37:39;62.53;;;23.40;;
3597;SDS011;1813;52.016;8.714;2023-11-21T04:40:12;53.80;;;22.90;;
3597;SDS011;1813;52.016;8.714;2023-11-21T04:42:49;64.43;;;25.17;;
3597;SDS011;1813;52.016;8.714;2023-11-21T04:45:22;51.17;;;23.37;;
3597;SDS011;1813;52.016;8.714;2023-11-21T04:47:56;55.33;;;22.97;;
3597;SDS011;1813;52.016;8.714;2023-11-21T04:50:29;66.53;;;24.07;;
3597;SDS011;1813;52.016;8.714;2023-11-21T04:53:02;63.27;;;23.80;;
3597;SDS011;1813;52.016;8.714;2023-11-21T04:55:36;60.10;;;23.37;;
3597;SDS011;1813;52.016;8.714;2023-11-21T04:58:12;60.17;;;25.00;;
3597;SDS011;1813;52.016;8.714;2023-11-21T05:00:45;55.30;;;21.50;;
3597;SDS011;1813;52.016;8.714;2023-11-21T05:03:20;58.60;;;23.10;;
3597;SDS011;1813;52.016;8.714;2023-11-21T05:05:54;53.03;;;22.90;;
3597;SDS011;1813;52.016;8.714;2023-11-21T05:08:27;59.27;;;23.53;;
3597;SDS011;1813;52.016;8.714;2023-11-21T05:11:01;48.90;;;20.20;;
3597;SDS011;1813;52.016;8.714;2023-11-21T05:13:37;55.23;;;22.83;;
3597;SDS011;1813;52.016;8.714;2023-11-21T05:16:10;65.37;;;23.50;;
3597;SDS011;1813;52.016;8.714;2023-11-21T05:18:44;64.80;;;24.80;;
3597;SDS011;1813;52.016;8.714;2023-11-21T05:21:18;63.97;;;24.47;;
3597;SDS011;1813;52.016;8.714;2023-11-21T05:23:52;65.00;;;24.87;;
3597;SDS011;1813;52.016;8.714;2023-11-21T05:26:25;58.53;;;22.37;;
3597;SDS011;1813;52.016;8.714;2023-11-21T05:29:01;65.00;;;24.70;;
3597;SDS011;1813;52.016;8.714;2023-11-21T05:31:35;72.90;;;26.20;;
3597;SDS011;1813;52.016;8.714;2023-11-21T05:34:09;77.20;;;29.00;;
3597;SDS011;1813;52.016;8.714;2023-11-21T05:36:42;81.53;;;30.20;;
3597;SDS011;1813;52.016;8.714;2023-11-21T05:39:16;80.73;;;29.27;;
3597;SDS011;1813;52.016;8.714;2023-11-21T05:41:51;80.77;;;30.30;;
3597;SDS011;1813;52.016;8.714;2023-11-21T05:44:27;79.50;;;29.10;;
3597;SDS011;1813;52.016;8.714;2023-11-21T05:47:00;84.20;;;29.67;;
3597;SDS011;1813;52.016;8.714;2023-11-21T05:49:33;80.23;;;30.20;;
3597;SDS011;1813;52.016;8.714;2023-11-21T05:52:07;80.73;;;30.17;;
3597;SDS011;1813;52.016;8.714;2023-11-21T05:54:40;79.87;;;30.80;;
3597;SDS011;1813;52.016;8.714;2023-11-21T05:57:14;87.93;;;31.27;;
3597;SDS011;1813;52.016;8.714;2023-11-21T05:59:51;83.87;;;32.07;;
3597;SDS011;1813;52.016;8.714;2023-11-21T06:02:25;76.30;;;29.90;;
3597;SDS011;1813;52.016;8.714;2023-11-21T06:04:58;83.00;;;31.67;;
3597;SDS011;1813;52.016;8.714;2023-11-21T06:07:34;83.67;;;30.60;;
3597;SDS011;1813;52.016;8.714;2023-11-21T06:10:08;85.23;;;31.13;;
3597;SDS011;1813;52.016;8.714;2023-11-21T06:12:44;79.40;;;31.30;;
3597;SDS011;1813;52.016;8.714;2023-11-21T06:15:21;82.03;;;32.40;;
3597;SDS011;1813;52.016;8.714;2023-11-21T06:17:55;78.77;;;33.80;;
3597;SDS011;1813;52.016;8.714;2023-11-21T06:20:30;79.37;;;33.40;;
3597;SDS011;1813;52.016;8.714;2023-11-21T06:23:03;81.67;;;35.53;;
3597;SDS011;1813;52.016;8.714;2023-11-21T06:25:37;79.03;;;34.00;;
3597;SDS011;1813;52.016;8.714;2023-11-21T06:28:10;86.87;;;35.57;;
3597;SDS011;1813;52.016;8.714;2023-11-21T06:30:50;85.97;;;36.37;;
3597;SDS011;1813;52.016;8.714;2023-11-21T06:33:23;76.97;;;34.80;;
3597;SDS011;1813;52.016;8.714;2023-11-21T06:35:57;82.43;;;34.17;;
3597;SDS011;1813;52.016;8.714;2023-11-21T06:38:32;78.77;;;35.00;;
3597;SDS011;1813;52.016;8.714;2023-11-21T06:41:06;79.03;;;34.60;;
3597;SDS011;1813;52.016;8.714;2023-11-21T06:43:39;79.53;;;34.90;;
3597;SDS011;1813;52.016;8.714;2023-11-21T06:46:17;82.20;;;36.90;;
3597;SDS011;1813;52.016;8.714;2023-11-21T06:48:50;90.77;;;37.07;;
3597;SDS011;1813;52.016;8.714;2023-11-21T06:51:24;92.93;;;42.27;;
3597;SDS011;1813;52.016;8.714;2023-11-21T06:53:57;93.33;;;40.70;;
3597;SDS011;1813;52.016;8.714;2023-11-21T06:56:31;79.17;;;37.53;;
3597;SDS011;1813;52.016;8.714;2023-11-21T06:59:04;76.23;;;35.67;;
3597;SDS011;1813;52.016;8.714;2023-11-21T07:01:41;92.57;;;39.97;;
3597;SDS011;1813;52.016;8.714;2023-11-21T07:04:15;90.13;;;38.97;;
3597;SDS011;1813;52.016;8.714;2023-11-21T07:06:48;91.70;;;39.20;;
3597;SDS011;1813;52.016;8.714;2023-11-21T07:09:22;93.03;;;35.90;;
3597;SDS011;1813;52.016;8.714;2023-11-21T07:11:56;82.27;;;35.60;;
3597;SDS011;1813;52.016;8.714;2023-11-21T07:14:29;89.73;;;36.33;;
3597;SDS011;1813;52.016;8.714;2023-11-21T07:17:05;99.03;;;37.10;;
3597;SDS011;1813;52.016;8.714;2023-11-21T07:19:39;81.90;;;31.97;;
3597;SDS011;1813;52.016;8.714;2023-11-21T07:22:12;88.63;;;34.17;;
3597;SDS011;1813;52.016;8.714;2023-11-21T07:24:51;90.17;;;34.70;;
3597;SDS011;1813;52.016;8.714;2023-11-21T07:27:26;89.77;;;36.77;;
3597;SDS011;1813;52.016;8.714;2023-11-21T07:30:00;98.27;;;38.30;;
3597;SDS011;1813;52.016;8.714;2023-11-21T07:32:37;85.47;;;35.20;;
3597;SDS011;1813;52.016;8.714;2023-11-21T07:35:11;89.17;;;35.50;;
3597;SDS011;1813;52.016;8.714;2023-11-21T07:37:44;105.73;;;44.17;;
3597;SDS011;1813;52.016;8.714;2023-11-21T07:40:19;90.60;;;36.73;;
3597;SDS011;1813;52.016;8.714;2023-11-21T07:42:52;99.83;;;36.50;;
3597;SDS011;1813;52.016;8.714;2023-11-21T07:45:27;91.90;;;36.00;;
3597;SDS011;1813;52.016;8.714;2023-11-21T07:48:03;85.97;;;36.17;;
3597;SDS011;1813;52.016;8.714;2023-11-21T07:50:37;89.57;;;36.47;;
3597;SDS011;1813;52.016;8.714;2023-11-21T07:53:11;87.40;;;36.27;;
3597;SDS011;1813;52.016;8.714;2023-11-21T07:55:44;98.07;;;39.80;;
3597;SDS011;1813;52.016;8.714;2023-11-21T07:58:18;98.20;;;38.67;;
3597;SDS011;1813;52.016;8.714;2023-11-21T08:00:51;100.33;;;38.90;;
3597;SDS011;1813;52.016;8.714;2023-11-21T08:03:27;100.73;;;39.90;;
3597;SDS011;1813;52.016;8.714;2023-11-21T08:06:02;94.93;;;35.53;;
3597;SDS011;1813;52.016;8.714;2023-11-21T08:08:36;94.87;;;36.60;;
3597;SDS011;1813;52.016;8.714;2023-11-21T08:11:09;106.80;;;35.97;;
3597;SDS011;1813;52.016;8.714;2023-11-21T08:13:43;83.03;;;29.80;;
3597;SDS011;1813;52.016;8.714;2023-11-21T08:16:16;93.20;;;31.50;;
3597;SDS011;1813;52.016;8.714;2023-11-21T08:18:52;99.07;;;30.60;;
3597;SDS011;1813;52.016;8.714;2023-11-21T08:21:27;96.37;;;34.80;;
3597;SDS011;1813;52.016;8.714;2023-11-21T08:24:01;104.30;;;31.37;;
3597;SDS011;1813;52.016;8.714;2023-11-21T08:26:35;105.03;;;31.77;;
3597;SDS011;1813;52.016;8.714;2023-11-21T08:29:08;112.13;;;31.73;;
3597;SDS011;1813;52.016;8.714;2023-11-21T08:31:42;97.67;;;30.10;;
3597;SDS011;1813;52.016;8.714;2023-11-21T08:34:19;92.60;;;30.97;;
3597;SDS011;1813;52.016;8.714;2023-11-21T08:36:53;113.43;;;31.77;;
3597;SDS011;1813;52.016;8.714;2023-11-21T08:39:27;95.13;;;30.10;;
3597;SDS011;1813;52.016;8.714;2023-11-21T08:42:00;85.30;;;29.70;;
3597;SDS011;1813;52.016;8.714;2023-11-21T08:44:34;87.60;;;28.00;;
3597;SDS011;1813;52.016;8.714;2023-11-21T08:47:09;92.27;;;29.80;;
3597;SDS011;1813;52.016;8.714;2023-11-21T08:49:45;83.43;;;27.37;;
3597;SDS011;1813;52.016;8.714;2023-11-21T08:52:18;97.13;;;28.87;;
3597;SDS011;1813;52.016;8.714;2023-11-21T08:54:53;87.40;;;28.80;;
3597;SDS011;1813;52.016;8.714;2023-11-21T08:57:27;71.77;;;25.77;;
3597;SDS011;1813;52.016;8.714;2023-11-21T09:00:00;75.50;;;24.57;;
3597;SDS011;1813;52.016;8.714;2023-11-21T09:02:38;68.57;;;23.20;;
3597;SDS011;1813;52.016;8.714;2023-11-21T09:05:15;62.37;;;21.00;;
3597;SDS011;1813;52.016;8.714;2023-11-21T09:07:49;59.87;;;22.27;;
3597;SDS011;1813;52.016;8.714;2023-11-21T09:10:22;50.90;;;19.80;;
3597;SDS011;1813;52.016;8.714;2023-11-21T09:12:56;46.80;;;18.80;;
3597;SDS011;1813;52.016;8.714;2023-11-21T09:15:29;43.37;;;18.50;;
3597;SDS011;1813;52.016;8.714;2023-11-21T09:18:03;38.80;;;17.30;;
3597;SDS011;1813;52.016;8.714;2023-11-21T09:20:39;34.50;;;16.77;;
3597;SDS011;1813;52.016;8.714;2023-11-21T09:23:13;37.50;;;17.53;;
3597;SDS011;1813;52.016;8.714;2023-11-21T09:25:46;39.00;;;17.67;;
3597;SDS011;1813;52.016;8.714;2023-11-21T09:28:20;43.57;;;17.47;;
3597;SDS011;1813;52.016;8.714;2023-11-21T09:30:54;34.60;;;16.80;;
3597;SDS011;1813;52.016;8.714;2023-11-21T09:33:27;35.17;;;16.63;;
3597;SDS011;1813;52.016;8.714;2023-11-21T09:36:04;33.60;;;16.50;;
3597;SDS011;1813;52.016;8.714;2023-11-21T09:38:39;31.43;;;15.37;;
3597;SDS011;1813;52.016;8.714;2023-11-21T09:41:15;31.17;;;15.63;;
3597;SDS011;1813;52.016;8.714;2023-11-21T09:43:54;29.97;;;14.60;;
3597;SDS011;1813;52.016;8.714;2023-11-21T09:46:30;34.43;;;16.70;;
3597;SDS011;1813;52.016;8.714;2023-11-21T09:49:04;36.63;;;17.17;;
3597;SDS011;1813;52.016;8.714;2023-11-21T09:51:45;40.03;;;16.40;;
3597;SDS011;1813;52.016;8.714;2023-11-21T09:54:21;35.70;;;15.30;;
3597;SDS011;1813;52.016;8.714;2023-11-21T09:56:54;34.03;;;14.80;;
3597;SDS011;1813;52.016;8.714;2023-11-21T09:59:29;30.17;;;13.63;;
3597;SDS011;1813;52.016;8.714;2023-11-21T10:02:06;28.87;;;12.87;;
3597;SDS011;1813;52.016;8.714;2023-11-21T10:04:42;31.10;;;14.90;;
3597;SDS011;1813;52.016;8.714;2023-11-21T10:07:18;30.00;;;14.67;;
3597;SDS011;1813;52.016;8.714;2023-11-21T10:09:53;30.37;;;14.93;;
3597;SDS011;1813;52.016;8.714;2023-11-21T10:12:28;32.90;;;15.80;;
3597;SDS011;1813;52.016;8.714;2023-11-21T10:15:05;32.50;;;15.23;;
3597;SDS011;1813;52.016;8.714;2023-11-21T10:17:42;29.20;;;14.90;;
3597;SDS011;1813;52.016;8.714;2023-11-21T10:20:18;30.43;;;15.50;;
3597;SDS011;1813;52.016;8.714;2023-11-21T10:22:55;49.50;;;14.37;;
3597;SDS011;1813;52.016;8.714;2023-11-21T10:25:29;43.07;;;13.67;;
3597;SDS011;1813;52.016;8.714;2023-11-21T10:28:03;31.43;;;13.40;;
3597;SDS011;1813;52.016;8.714;2023-11-21T10:30:38;29.30;;;13.90;;
3597;SDS011;1813;52.016;8.714;2023-11-21T10:33:12;46.53;;;14.47;;
3597;SDS011;1813;52.016;8.714;2023-11-21T10:35:46;36.60;;;13.10;;
3597;SDS011;1813;52.016;8.714;2023-11-21T10:38:24;31.50;;;15.40;;
3597;SDS011;1813;52.016;8.714;2023-11-21T10:40:58;25.30;;;14.40;;
3597;SDS011;1813;52.016;8.714;2023-11-21T10:43:35;22.67;;;13.20;;
3597;SDS011;1813;52.016;8.714;2023-11-21T10:46:08;20.90;;;12.97;;
3597;SDS011;1813;52.016;8.714;2023-11-21T10:48:42;21.93;;;12.90;;
3597;SDS011;1813;52.016;8.714;2023-11-21T10:51:16;20.97;;;12.83;;
3597;SDS011;1813;52.016;8.714;2023-11-21T10:53:52;20.23;;;12.87;;
3597;SDS011;1813;52.016;8.714;2023-11-21T10:56:26;18.33;;;12.57;;
3597;SDS011;1813;52.016;8.714;2023-11-21T10:59:00;14.37;;;11.17;;
3597;SDS011;1813;52.016;8.714;2023-11-21T11:01:36;16.00;;;12.17;;
3597;SDS011;1813;52.016;8.714;2023-11-21T11:04:10;17.53;;;13.30;;
3597;SDS011;1813;52.016;8.714;2023-11-21T11:06:47;16.80;;;12.60;;
3597;SDS011;1813;52.016;8.714;2023-11-21T11:09:26;18.53;;;13.00;;
3597;SDS011;1813;52.016;8.714;2023-11-21T11:12:00;15.80;;;12.00;;
3597;SDS011;1813;52.016;8.714;2023-11-21T11:14:35;16.07;;;11.40;;
3597;SDS011;1813;52.016;8.714;2023-11-21T11:17:09;15.23;;;10.43;;
3597;SDS011;1813;52.016;8.714;2023-11-21T11:19:43;14.93;;;11.20;;
3597;SDS011;1813;52.016;8.714;2023-11-21T11:22:19;17.30;;;11.13;;
3597;SDS011;1813;52.016;8.714;2023-11-21T11:25:07;17.47;;;11.90;;
3597;SDS011;1813;52.016;8.714;2023-11-21T11:27:59;17.20;;;12.50;;
3597;SDS011;1813;52.016;8.714;2023-11-21T11:30:41;23.50;;;14.40;;
3597;SDS011;1813;52.016;8.714;2023-11-21T11:33:28;21.43;;;14.60;;
3597;SDS011;1813;52.016;8.714;2023-11-21T11:36:15;20.77;;;14.77;;
3597;SDS011;1813;52.016;8.714;2023-11-21T11:38:55;21.83;;;14.63;;
3597;SDS011;1813;52.016;8.714;2023-11-21T11:41:32;18.23;;;14.00;;
3597;SDS011;1813;52.016;8.714;2023-11-21T11:44:09;24.93;;;15.27;;
3597;SDS011;1813;52.016;8.714;2023-11-21T11:47:26;19.50;;;14.00;;
3597;SDS011;1813;52.016;8.714;2023-11-21T11:50:03;22.07;;;14.70;;
3597;SDS011;1813;52.016;8.714;2023-11-21T11:52:44;24.97;;;15.27;;
3597;SDS011;1813;52.016;8.714;2023-11-21T11:55:19;20.03;;;14.50;;
3597;SDS011;1813;52.016;8.714;2023-11-21T11:57:56;23.17;;;15.40;;
3597;SDS011;1813;52.016;8.714;2023-11-21T12:00:33;19.90;;;14.70;;
3597;SDS011;1813;52.016;8.714;2023-11-21T12:03:10;22.60;;;14.80;;
3597;SDS011;1813;52.016;8.714;2023-11-21T12:05:43;23.60;;;15.80;;
3597;SDS011;1813;52.016;8.714;2023-11-21T12:08:20;21.53;;;15.00;;
3597;SDS011;1813;52.016;8.714;2023-11-21T12:11:01;18.73;;;14.37;;
3597;SDS011;1813;52.016;8.714;2023-11-21T12:13:37;22.83;;;14.83;;
3597;SDS011;1813;52.016;8.714;2023-11-21T12:16:12;22.23;;;15.57;;
3597;SDS011;1813;52.016;8.714;2023-11-21T12:18:46;22.47;;;15.47;;
3597;SDS011;1813;52.016;8.714;2023-11-21T12:21:19;23.03;;;15.27;;
3597;SDS011;1813;52.016;8.714;2023-11-21T12:23:55;18.80;;;12.93;;
3597;SDS011;1813;52.016;8.714;2023-11-21T12:26:29;16.67;;;12.03;;
3597;SDS011;1813;52.016;8.714;2023-11-21T12:29:05;14.00;;;10.87;;
3597;SDS011;1813;52.016;8.714;2023-11-21T12:31:41;13.87;;;10.70;;
3597;SDS011;1813;52.016;8.714;2023-11-21T12:34:14;16.70;;;11.33;;
3597;SDS011;1813;52.016;8.714;2023-11-21T12:36:48;15.27;;;11.40;;
3597;SDS011;1813;52.016;8.714;2023-11-21T12:39:24;18.13;;;11.33;;
3597;SDS011;1813;52.016;8.714;2023-11-21T12:41:59;15.80;;;10.40;;
3597;SDS011;1813;52.016;8.714;2023-11-21T12:44:36;14.93;;;10.90;;
3597;SDS011;1813;52.016;8.714;2023-11-21T12:47:15;14.20;;;10.60;;
3597;SDS011;1813;52.016;8.714;2023-11-21T12:49:51;14.13;;;10.97;;
3597;SDS011;1813;52.016;8.714;2023-11-21T12:52:25;14.23;;;10.90;;
3597;SDS011;1813;52.016;8.714;2023-11-21T12:54:59;16.37;;;11.50;;
3597;SDS011;1813;52.016;8.714;2023-11-21T12:57:33;16.40;;;11.50;;
3597;SDS011;1813;52.016;8.714;2023-11-21T13:00:11;20.47;;;11.07;;
3597;SDS011;1813;52.016;8.714;2023-11-21T13:02:57;17.70;;;11.10;;
3597;SDS011;1813;52.016;8.714;2023-11-21T13:05:32;14.17;;;10.33;;
3597;SDS011;1813;52.016;8.714;2023-11-21T13:08:09;12.90;;;10.10;;
3597;SDS011;1813;52.016;8.714;2023-11-21T13:10:44;14.23;;;10.80;;
3597;SDS011;1813;52.016;8.714;2023-11-21T13:13:18;15.73;;;10.80;;
3597;SDS011;1813;52.016;8.714;2023-11-21T13:15:55;14.33;;;10.17;;
3597;SDS011;1813;52.016;8.714;2023-11-21T13:18:31;12.60;;;9.40;;
3597;SDS011;1813;52.016;8.714;2023-11-21T13:21:05;18.50;;;10.10;;
3597;SDS011;1813;52.016;8.714;2023-11-21T13:23:44;15.27;;;10.53;;
3597;SDS011;1813;52.016;8.714;2023-11-21T13:26:20;12.73;;;10.10;;
3597;SDS011;1813;52.016;8.714;2023-11-21T13:28:56;10.30;;;8.13;;
3597;SDS011;1813;52.016;8.714;2023-11-21T13:31:32;9.60;;;7.77;;
3597;SDS011;1813;52.016;8.714;2023-11-21T13:34:07;7.60;;;6.83;;
3597;SDS011;1813;52.016;8.714;2023-11-21T13:36:44;8.03;;;7.23;;
3597;SDS011;1813;52.016;8.714;2023-11-21T13:39:18;9.53;;;7.17;;
3597;SDS011;1813;52.016;8.714;2023-11-21T13:41:51;8.57;;;7.00;;
3597;SDS011;1813;52.016;8.714;2023-11-21T13:44:25;10.40;;;7.47;;
3597;SDS011;1813;52.016;8.714;2023-11-21T13:47:08;8.67;;;7.10;;
3597;SDS011;1813;52.016;8.714;2023-11-21T13:49:42;11.00;;;7.37;;
3597;SDS011;1813;52.016;8.714;2023-11-21T13:52:15;11.80;;;8.07;;
3597;SDS011;1813;52.016;8.714;2023-11-21T13:54:52;10.47;;;7.20;;
3597;SDS011;1813;52.016;8.714;2023-11-21T13:57:26;9.67;;;7.20;;
3597;SDS011;1813;52.016;8.714;2023-11-21T14:00:00;8.63;;;7.30;;
3597;SDS011;1813;52.016;8.714;2023-11-21T14:02:43;12.83;;;9.43;;
3597;SDS011;1813;52.016;8.714;2023-11-21T14:05:19;11.60;;;9.70;;
3597;SDS011;1813;52.016;8.714;2023-11-21T14:07:59;14.90;;;10.10;;
3597;SDS011;1813;52.016;8.714;2023-11-21T14:10:34;14.43;;;10.50;;
3597;SDS011;1813;52.016;8.714;2023-11-21T14:13:13;13.80;;;10.43;;
3597;SDS011;1813;52.016;8.714;2023-11-21T14:15:46;14.40;;;11.10;;
3597;SDS011;1813;52.016;8.714;2023-11-21T14:18:24;12.47;;;10.20;;
3597;SDS011;1813;52.016;8.714;2023-11-21T14:21:04;12.87;;;10.60;;
3597;SDS011;1813;52.016;8.714;2023-11-21T14:23:40;11.67;;;9.67;;
3597;SDS011;1813;52.016;8.714;2023-11-21T14:26:16;12.90;;;9.97;;
3597;SDS011;1813;52.016;8.714;2023-11-21T14:28:49;11.97;;;9.80;;
3597;SDS011;1813;52.016;8.714;2023-11-21T14:31:24;12.27;;;9.67;;
3597;SDS011;1813;52.016;8.714;2023-11-21T14:34:03;15.53;;;8.90;;
3597;SDS011;1813;52.016;8.714;2023-11-21T14:36:37;12.93;;;9.00;;
3597;SDS011;1813;52.016;8.714;2023-11-21T14:39:11;13.33;;;9.70;;
3597;SDS011;1813;52.016;8.714;2023-11-21T14:41:53;9.80;;;8.30;;
3597;SDS011;1813;52.016;8.714;2023-11-21T14:44:28;11.70;;;9.33;;
3597;SDS011;1813;52.016;8.714;2023-11-21T14:47:05;11.30;;;8.50;;
3597;SDS011;1813;52.016;8.714;2023-11-21T14:49:47;10.43;;;9.07;;
3597;SDS011;1813;52.016;8.714;2023-11-21T14:52:26;9.97;;;8.60;;
3597;SDS011;1813;52.016;8.714;2023-11-21T14:55:04;12.83;;;9.33;;
3597;SDS011;1813;52.016;8.714;2023-11-21T14:58:01;12.37;;;8.93;;
3597;SDS011;1813;52.016;8.714;2023-11-21T15:00:34;11.60;;;8.90;;
3597;SDS011;1813;52.016;8.714;2023-11-21T15:03:14;12.30;;;9.43;;
3597;SDS011;1813;52.016;8.714;2023-11-21T15:06:07;13.07;;;9.80;;
3597;SDS011;1813;52.016;8.714;2023-11-21T15:08:57;13.50;;;9.57;;
3597;SDS011;1813;52.016;8.714;2023-11-21T15:11:45;16.30;;;9.43;;
3597;SDS011;1813;52.016;8.714;2023-11-21T15:14:19;13.43;;;10.17;;
3597;SDS011;1813;52.016;8.714;2023-11-21T15:16:55;13.57;;;9.97;;
3597;SDS011;1813;52.016;8.714;2023-11-21T15:19:30;12.50;;;9.20;;
3597;SDS011;1813;52.016;8.714;2023-11-21T15:22:07;13.80;;;9.90;;
3597;SDS011;1813;52.016;8.714;2023-11-21T15:24:43;13.37;;;9.87;;
3597;SDS011;1813;52.016;8.714;2023-11-21T15:27:17;11.60;;;9.30;;
3597;SDS011;1813;52.016;8.714;2023-11-21T15:29:51;13.33;;;9.40;;
3597;SDS011;1813;52.016;8.714;2023-11-21T15:32:24;11.60;;;9.67;;
3597;SDS011;1813;52.016;8.714;2023-11-21T15:34:58;12.97;;;9.73;;
3597;SDS011;1813;52.016;8.714;2023-11-21T15:37:34;11.20;;;8.97;;